sensor_id;sensor_type;location;lat;lon;timestamp;temperature;humidity
18823;DHT22;9540;51.550;7.980;2022-07-06T00:01:11;14.40;99.90
18823;DHT22;9540;51.550;7.980;2022-07-06T00:03:38;14.40;99.90
18823;DHT22;9540;51.550;7.980;2022-07-06T00:06:07;14.40;99.90
18823;DHT22;9540;51.550;7.980;2022-07-06T00:08:34;14.40;99.90
18823;DHT22;9540;51.550;7.980;2022-07-06T00:11:01;14.40;99.90
18823;DHT22;9540;51.550;7.980;2022-07-06T00:13:28;14.50;99.90
18823;DHT22;9540;51.550;7.980;2022-07-06T00:15:55;14.50;99.90
18823;DHT22;9540;51.550;7.980;2022-07-06T00:18:23;14.50;99.90
18823;DHT22;9540;51.550;7.980;2022-07-06T00:20:50;14.50;99.90
18823;DHT22;9540;51.550;7.980;2022-07-06T00:23:18;14.50;99.90
18823;DHT22;9540;51.550;7.980;2022-07-06T00:25:45;14.40;99.90
18823;DHT22;9540;51.550;7.980;2022-07-06T00:28:13;14.40;99.90
18823;DHT22;9540;51.550;7.980;2022-07-06T00:30:41;14.40;99.90
18823;DHT22;9540;51.550;7.980;2022-07-06T00:33:08;14.40;99.90
18823;DHT22;9540;51.550;7.980;2022-07-06T00:35:35;14.40;99.90
18823;DHT22;9540;51.550;7.980;2022-07-06T00:38:02;14.40;99.90
18823;DHT22;9540;51.550;7.980;2022-07-06T00:40:30;14.40;99.90
18823;DHT22;9540;51.550;7.980;2022-07-06T00:42:58;14.40;99.90
18823;DHT22;9540;51.550;7.980;2022-07-06T00:45:25;14.40;99.90
18823;DHT22;9540;51.550;7.980;2022-07-06T00:47:52;14.40;99.90
18823;DHT22;9540;51.550;7.980;2022-07-06T00:50:20;14.40;99.90
18823;DHT22;9540;51.550;7.980;2022-07-06T00:52:49;14.40;99.90
18823;DHT22;9540;51.550;7.980;2022-07-06T00:55:17;14.40;99.90
18823;DHT22;9540;51.550;7.980;2022-07-06T00:57:46;14.30;99.90
18823;DHT22;9540;51.550;7.980;2022-07-06T01:00:15;14.30;99.90
18823;DHT22;9540;51.550;7.980;2022-07-06T01:02:43;14.30;99.90
18823;DHT22;9540;51.550;7.980;2022-07-06T01:05:12;14.20;99.90
18823;DHT22;9540;51.550;7.980;2022-07-06T01:07:41;14.30;99.90
18823;DHT22;9540;51.550;7.980;2022-07-06T01:10:10;14.30;99.90
18823;DHT22;9540;51.550;7.980;2022-07-06T01:12:39;14.20;99.90
18823;DHT22;9540;51.550;7.980;2022-07-06T01:15:10;14.30;99.90
18823;DHT22;9540;51.550;7.980;2022-07-06T01:17:38;14.20;99.90
18823;DHT22;9540;51.550;7.980;2022-07-06T01:20:10;14.20;99.90
18823;DHT22;9540;51.550;7.980;2022-07-06T01:22:37;14.10;99.90
18823;DHT22;9540;51.550;7.980;2022-07-06T01:25:06;14.10;99.90
18823;DHT22;9540;51.550;7.980;2022-07-06T01:27:34;14.00;99.90
18823;DHT22;9540;51.550;7.980;2022-07-06T01:30:04;14.00;99.90
18823;DHT22;9540;51.550;7.980;2022-07-06T01:32:31;13.90;99.90
18823;DHT22;9540;51.550;7.980;2022-07-06T01:34:59;13.90;99.90
18823;DHT22;9540;51.550;7.980;2022-07-06T01:37:28;13.90;99.90
18823;DHT22;9540;51.550;7.980;2022-07-06T01:39:58;13.80;99.90
18823;DHT22;9540;51.550;7.980;2022-07-06T01:42:26;13.80;99.90
18823;DHT22;9540;51.550;7.980;2022-07-06T01:44:53;13.80;99.90
18823;DHT22;9540;51.550;7.980;2022-07-06T01:47:21;13.70;99.90
18823;DHT22;9540;51.550;7.980;2022-07-06T01:49:48;13.70;99.90
18823;DHT22;9540;51.550;7.980;2022-07-06T01:52:15;13.70;99.90
18823;DHT22;9540;51.550;7.980;2022-07-06T01:54:44;13.70;99.90
18823;DHT22;9540;51.550;7.980;2022-07-06T01:57:11;13.60;99.90
18823;DHT22;9540;51.550;7.980;2022-07-06T01:59:38;13.60;99.90
18823;DHT22;9540;51.550;7.980;2022-07-06T02:02:05;13.70;99.90
18823;DHT22;9540;51.550;7.980;2022-07-06T02:04:32;13.70;99.90
18823;DHT22;9540;51.550;7.980;2022-07-06T02:06:59;13.70;99.90
18823;DHT22;9540;51.550;7.980;2022-07-06T02:09:26;13.70;99.90
18823;DHT22;9540;51.550;7.980;2022-07-06T02:11:55;13.70;99.90
18823;DHT22;9540;51.550;7.980;2022-07-06T02:14:22;13.70;99.90
18823;DHT22;9540;51.550;7.980;2022-07-06T02:16:49;13.70;99.90
18823;DHT22;9540;51.550;7.980;2022-07-06T02:19:16;13.70;99.90
18823;DHT22;9540;51.550;7.980;2022-07-06T02:21:43;13.70;99.90
18823;DHT22;9540;51.550;7.980;2022-07-06T02:24:10;13.70;99.90
18823;DHT22;9540;51.550;7.980;2022-07-06T02:26:37;13.70;99.90
18823;DHT22;9540;51.550;7.980;2022-07-06T02:29:06;13.60;99.90
18823;DHT22;9540;51.550;7.980;2022-07-06T02:31:33;13.50;99.90
18823;DHT22;9540;51.550;7.980;2022-07-06T02:34:00;13.50;99.90
18823;DHT22;9540;51.550;7.980;2022-07-06T02:36:27;13.40;99.90
18823;DHT22;9540;51.550;7.980;2022-07-06T02:38:54;13.40;99.90
18823;DHT22;9540;51.550;7.980;2022-07-06T02:41:21;13.30;99.90
18823;DHT22;9540;51.550;7.980;2022-07-06T02:43:48;13.10;99.90
18823;DHT22;9540;51.550;7.980;2022-07-06T02:46:17;13.10;99.90
18823;DHT22;9540;51.550;7.980;2022-07-06T02:48:43;13.00;99.90
18823;DHT22;9540;51.550;7.980;2022-07-06T02:51:11;12.90;99.90
18823;DHT22;9540;51.550;7.980;2022-07-06T02:53:38;12.80;99.90
18823;DHT22;9540;51.550;7.980;2022-07-06T02:56:05;12.80;99.90
18823;DHT22;9540;51.550;7.980;2022-07-06T02:58:32;12.80;99.90
18823;DHT22;9540;51.550;7.980;2022-07-06T03:01:00;12.70;99.90
18823;DHT22;9540;51.550;7.980;2022-07-06T03:03:28;12.60;99.90
18823;DHT22;9540;51.550;7.980;2022-07-06T03:05:55;12.50;99.90
18823;DHT22;9540;51.550;7.980;2022-07-06T03:08:22;12.40;99.90
18823;DHT22;9540;51.550;7.980;2022-07-06T03:10:49;12.30;99.90
18823;DHT22;9540;51.550;7.980;2022-07-06T03:13:16;12.20;99.90
18823;DHT22;9540;51.550;7.980;2022-07-06T03:15:43;12.00;99.90
18823;DHT22;9540;51.550;7.980;2022-07-06T03:18:10;12.00;99.90
18823;DHT22;9540;51.550;7.980;2022-07-06T03:20:38;11.90;99.90
18823;DHT22;9540;51.550;7.980;2022-07-06T03:23:05;11.80;99.90
18823;DHT22;9540;51.550;7.980;2022-07-06T03:25:32;11.80;99.90
18823;DHT22;9540;51.550;7.980;2022-07-06T03:27:59;11.60;99.90
18823;DHT22;9540;51.550;7.980;2022-07-06T03:30:26;11.60;99.90
18823;DHT22;9540;51.550;7.980;2022-07-06T03:32:53;11.50;99.90
18823;DHT22;9540;51.550;7.980;2022-07-06T03:35:20;11.40;99.90
18823;DHT22;9540;51.550;7.980;2022-07-06T03:37:49;11.40;99.90
18823;DHT22;9540;51.550;7.980;2022-07-06T03:40:16;11.40;99.90
18823;DHT22;9540;51.550;7.980;2022-07-06T03:42:43;11.40;99.90
18823;DHT22;9540;51.550;7.980;2022-07-06T03:45:10;11.30;99.90
18823;DHT22;9540;51.550;7.980;2022-07-06T03:47:37;11.30;99.90
18823;DHT22;9540;51.550;7.980;2022-07-06T03:50:05;11.30;99.90
18823;DHT22;9540;51.550;7.980;2022-07-06T03:52:33;11.20;99.90
18823;DHT22;9540;51.550;7.980;2022-07-06T03:55:02;11.20;99.90
18823;DHT22;9540;51.550;7.980;2022-07-06T03:57:29;11.20;99.90
18823;DHT22;9540;51.550;7.980;2022-07-06T03:59:56;11.20;99.90
18823;DHT22;9540;51.550;7.980;2022-07-06T04:02:23;11.20;99.90
18823;DHT22;9540;51.550;7.980;2022-07-06T04:04:50;11.10;99.90
18823;DHT22;9540;51.550;7.980;2022-07-06T04:07:17;11.10;99.90
18823;DHT22;9540;51.550;7.980;2022-07-06T04:09:44;11.00;99.90
18823;DHT22;9540;51.550;7.980;2022-07-06T04:12:12;11.00;99.90
18823;DHT22;9540;51.550;7.980;2022-07-06T04:14:39;11.00;99.90
18823;DHT22;9540;51.550;7.980;2022-07-06T04:17:06;10.90;99.90
18823;DHT22;9540;51.550;7.980;2022-07-06T04:19:47;10.90;99.90
18823;DHT22;9540;51.550;7.980;2022-07-06T04:22:15;10.90;99.90
18823;DHT22;9540;51.550;7.980;2022-07-06T04:24:42;10.90;99.90
18823;DHT22;9540;51.550;7.980;2022-07-06T04:27:09;11.00;99.90
18823;DHT22;9540;51.550;7.980;2022-07-06T04:29:37;11.20;99.90
18823;DHT22;9540;51.550;7.980;2022-07-06T04:32:05;11.30;99.90
18823;DHT22;9540;51.550;7.980;2022-07-06T04:34:32;11.40;99.90
18823;DHT22;9540;51.550;7.980;2022-07-06T04:36:59;11.60;99.90
18823;DHT22;9540;51.550;7.980;2022-07-06T04:39:26;11.70;99.90
18823;DHT22;9540;51.550;7.980;2022-07-06T04:41:56;11.90;99.90
18823;DHT22;9540;51.550;7.980;2022-07-06T04:44:23;12.00;99.90
18823;DHT22;9540;51.550;7.980;2022-07-06T04:46:51;12.00;99.90
18823;DHT22;9540;51.550;7.980;2022-07-06T04:49:18;12.10;99.90
18823;DHT22;9540;51.550;7.980;2022-07-06T04:51:45;12.10;99.90
18823;DHT22;9540;51.550;7.980;2022-07-06T04:54:13;12.10;99.90
18823;DHT22;9540;51.550;7.980;2022-07-06T04:56:40;12.10;99.90
18823;DHT22;9540;51.550;7.980;2022-07-06T04:59:07;12.20;99.90
18823;DHT22;9540;51.550;7.980;2022-07-06T05:01:34;12.20;99.90
18823;DHT22;9540;51.550;7.980;2022-07-06T05:04:02;12.20;99.90
18823;DHT22;9540;51.550;7.980;2022-07-06T05:06:29;12.20;99.90
18823;DHT22;9540;51.550;7.980;2022-07-06T05:08:57;12.20;99.90
18823;DHT22;9540;51.550;7.980;2022-07-06T05:11:25;12.20;99.90
18823;DHT22;9540;51.550;7.980;2022-07-06T05:13:52;12.20;99.90
18823;DHT22;9540;51.550;7.980;2022-07-06T05:16:20;12.20;99.90
18823;DHT22;9540;51.550;7.980;2022-07-06T05:18:47;12.30;99.90
18823;DHT22;9540;51.550;7.980;2022-07-06T05:21:15;12.40;99.90
18823;DHT22;9540;51.550;7.980;2022-07-06T05:23:42;12.50;99.90
18823;DHT22;9540;51.550;7.980;2022-07-06T05:26:09;12.60;99.90
18823;DHT22;9540;51.550;7.980;2022-07-06T05:28:36;12.60;99.90
18823;DHT22;9540;51.550;7.980;2022-07-06T05:31:04;12.60;99.90
18823;DHT22;9540;51.550;7.980;2022-07-06T05:33:31;12.70;99.90
18823;DHT22;9540;51.550;7.980;2022-07-06T05:35:58;12.80;99.90
18823;DHT22;9540;51.550;7.980;2022-07-06T05:38:26;12.90;99.90
18823;DHT22;9540;51.550;7.980;2022-07-06T05:40:53;13.00;99.90
18823;DHT22;9540;51.550;7.980;2022-07-06T05:43:20;13.20;99.90
18823;DHT22;9540;51.550;7.980;2022-07-06T05:45:47;13.30;99.90
18823;DHT22;9540;51.550;7.980;2022-07-06T05:48:14;13.40;99.90
18823;DHT22;9540;51.550;7.980;2022-07-06T05:50:59;13.50;99.90
18823;DHT22;9540;51.550;7.980;2022-07-06T05:53:28;13.50;99.90
18823;DHT22;9540;51.550;7.980;2022-07-06T05:55:55;13.60;99.90
18823;DHT22;9540;51.550;7.980;2022-07-06T05:58:22;13.70;99.90
18823;DHT22;9540;51.550;7.980;2022-07-06T06:00:50;13.80;99.90
18823;DHT22;9540;51.550;7.980;2022-07-06T06:03:18;13.90;99.90
18823;DHT22;9540;51.550;7.980;2022-07-06T06:05:45;14.10;99.90
18823;DHT22;9540;51.550;7.980;2022-07-06T06:08:12;14.20;99.90
18823;DHT22;9540;51.550;7.980;2022-07-06T06:10:41;14.20;99.90
18823;DHT22;9540;51.550;7.980;2022-07-06T06:13:08;14.20;99.90
18823;DHT22;9540;51.550;7.980;2022-07-06T06:15:35;14.10;99.90
18823;DHT22;9540;51.550;7.980;2022-07-06T06:18:02;14.20;99.90
18823;DHT22;9540;51.550;7.980;2022-07-06T06:20:30;14.30;99.90
18823;DHT22;9540;51.550;7.980;2022-07-06T06:22:58;14.50;99.90
18823;DHT22;9540;51.550;7.980;2022-07-06T06:25:28;14.50;99.90
18823;DHT22;9540;51.550;7.980;2022-07-06T06:27:57;14.60;99.90
18823;DHT22;9540;51.550;7.980;2022-07-06T06:30:24;14.60;99.90
18823;DHT22;9540;51.550;7.980;2022-07-06T06:32:51;14.70;99.90
18823;DHT22;9540;51.550;7.980;2022-07-06T06:35:18;14.70;99.90
18823;DHT22;9540;51.550;7.980;2022-07-06T06:37:45;14.80;99.90
18823;DHT22;9540;51.550;7.980;2022-07-06T06:40:12;14.90;99.90
18823;DHT22;9540;51.550;7.980;2022-07-06T06:42:40;15.00;99.90
18823;DHT22;9540;51.550;7.980;2022-07-06T06:45:09;14.90;99.90
18823;DHT22;9540;51.550;7.980;2022-07-06T06:47:36;15.00;99.90
18823;DHT22;9540;51.550;7.980;2022-07-06T06:50:04;15.20;99.90
18823;DHT22;9540;51.550;7.980;2022-07-06T06:52:31;15.40;99.90
18823;DHT22;9540;51.550;7.980;2022-07-06T06:54:58;15.70;99.90
18823;DHT22;9540;51.550;7.980;2022-07-06T06:57:26;15.80;99.90
18823;DHT22;9540;51.550;7.980;2022-07-06T06:59:54;15.90;99.90
18823;DHT22;9540;51.550;7.980;2022-07-06T07:02:23;15.90;99.90
18823;DHT22;9540;51.550;7.980;2022-07-06T07:04:50;16.00;99.90
18823;DHT22;9540;51.550;7.980;2022-07-06T07:07:17;16.10;99.90
18823;DHT22;9540;51.550;7.980;2022-07-06T07:09:43;16.20;99.90
18823;DHT22;9540;51.550;7.980;2022-07-06T07:12:10;16.20;99.90
18823;DHT22;9540;51.550;7.980;2022-07-06T07:14:37;16.10;99.90
18823;DHT22;9540;51.550;7.980;2022-07-06T07:17:04;16.20;99.90
18823;DHT22;9540;51.550;7.980;2022-07-06T07:19:33;16.10;99.90
18823;DHT22;9540;51.550;7.980;2022-07-06T07:22:00;16.00;99.90
18823;DHT22;9540;51.550;7.980;2022-07-06T07:24:27;16.00;99.90
18823;DHT22;9540;51.550;7.980;2022-07-06T07:26:54;16.10;99.90
18823;DHT22;9540;51.550;7.980;2022-07-06T07:29:21;16.10;99.90
18823;DHT22;9540;51.550;7.980;2022-07-06T07:31:48;16.20;99.90
18823;DHT22;9540;51.550;7.980;2022-07-06T07:34:15;16.10;99.90
18823;DHT22;9540;51.550;7.980;2022-07-06T07:36:44;16.30;99.90
18823;DHT22;9540;51.550;7.980;2022-07-06T07:39:11;16.30;99.90
18823;DHT22;9540;51.550;7.980;2022-07-06T07:41:38;16.50;99.90
18823;DHT22;9540;51.550;7.980;2022-07-06T07:44:05;16.60;99.90
18823;DHT22;9540;51.550;7.980;2022-07-06T07:46:32;16.80;99.90
18823;DHT22;9540;51.550;7.980;2022-07-06T07:48:59;16.90;99.90
18823;DHT22;9540;51.550;7.980;2022-07-06T07:51:26;17.10;99.90
18823;DHT22;9540;51.550;7.980;2022-07-06T07:53:54;17.20;99.90
18823;DHT22;9540;51.550;7.980;2022-07-06T07:56:21;16.80;99.90
18823;DHT22;9540;51.550;7.980;2022-07-06T07:58:48;16.90;99.90
18823;DHT22;9540;51.550;7.980;2022-07-06T08:01:15;16.80;99.90
18823;DHT22;9540;51.550;7.980;2022-07-06T08:03:42;16.90;99.90
18823;DHT22;9540;51.550;7.980;2022-07-06T08:06:09;17.00;99.90
18823;DHT22;9540;51.550;7.980;2022-07-06T08:08:37;17.00;99.90
18823;DHT22;9540;51.550;7.980;2022-07-06T08:11:05;17.10;99.90
18823;DHT22;9540;51.550;7.980;2022-07-06T08:13:33;17.00;99.90
18823;DHT22;9540;51.550;7.980;2022-07-06T08:16:00;17.00;99.90
18823;DHT22;9540;51.550;7.980;2022-07-06T08:18:27;17.20;99.90
18823;DHT22;9540;51.550;7.980;2022-07-06T08:20:54;17.30;99.90
18823;DHT22;9540;51.550;7.980;2022-07-06T08:23:22;17.60;99.90
18823;DHT22;9540;51.550;7.980;2022-07-06T08:25:49;17.40;99.90
18823;DHT22;9540;51.550;7.980;2022-07-06T08:28:17;17.50;99.90
18823;DHT22;9540;51.550;7.980;2022-07-06T08:30:44;17.30;99.90
18823;DHT22;9540;51.550;7.980;2022-07-06T08:33:11;17.10;99.90
18823;DHT22;9540;51.550;7.980;2022-07-06T08:35:38;16.90;99.90
18823;DHT22;9540;51.550;7.980;2022-07-06T08:38:05;16.80;99.90
18823;DHT22;9540;51.550;7.980;2022-07-06T08:40:34;16.90;99.90
18823;DHT22;9540;51.550;7.980;2022-07-06T08:43:02;17.00;99.90
18823;DHT22;9540;51.550;7.980;2022-07-06T08:45:34;17.10;99.90
18823;DHT22;9540;51.550;7.980;2022-07-06T08:48:05;16.90;99.90
18823;DHT22;9540;51.550;7.980;2022-07-06T08:50:33;16.80;99.90
18823;DHT22;9540;51.550;7.980;2022-07-06T08:53:00;16.80;99.90
18823;DHT22;9540;51.550;7.980;2022-07-06T08:55:28;16.90;99.90
18823;DHT22;9540;51.550;7.980;2022-07-06T08:57:56;16.90;99.90
18823;DHT22;9540;51.550;7.980;2022-07-06T09:00:24;16.90;99.90
18823;DHT22;9540;51.550;7.980;2022-07-06T09:02:52;16.90;99.90
18823;DHT22;9540;51.550;7.980;2022-07-06T09:05:23;16.70;99.90
18823;DHT22;9540;51.550;7.980;2022-07-06T09:07:51;16.70;99.90
18823;DHT22;9540;51.550;7.980;2022-07-06T09:10:20;16.80;99.90
18823;DHT22;9540;51.550;7.980;2022-07-06T09:12:49;16.60;99.90
18823;DHT22;9540;51.550;7.980;2022-07-06T09:15:16;16.70;99.90
18823;DHT22;9540;51.550;7.980;2022-07-06T09:17:43;16.60;99.90
18823;DHT22;9540;51.550;7.980;2022-07-06T09:20:13;16.70;99.90
18823;DHT22;9540;51.550;7.980;2022-07-06T09:22:40;16.80;99.90
18823;DHT22;9540;51.550;7.980;2022-07-06T09:25:10;16.80;99.90
18823;DHT22;9540;51.550;7.980;2022-07-06T09:27:38;16.80;99.90
18823;DHT22;9540;51.550;7.980;2022-07-06T09:30:07;16.90;99.90
18823;DHT22;9540;51.550;7.980;2022-07-06T09:32:39;16.90;99.90
18823;DHT22;9540;51.550;7.980;2022-07-06T09:35:07;16.90;99.90
18823;DHT22;9540;51.550;7.980;2022-07-06T09:37:35;17.00;99.90
18823;DHT22;9540;51.550;7.980;2022-07-06T09:40:16;17.00;99.90
18823;DHT22;9540;51.550;7.980;2022-07-06T09:42:44;17.00;99.90
18823;DHT22;9540;51.550;7.980;2022-07-06T09:45:11;16.90;99.90
18823;DHT22;9540;51.550;7.980;2022-07-06T09:47:38;17.00;99.90
18823;DHT22;9540;51.550;7.980;2022-07-06T09:50:08;17.00;99.90
18823;DHT22;9540;51.550;7.980;2022-07-06T09:52:37;17.20;99.90
18823;DHT22;9540;51.550;7.980;2022-07-06T09:55:14;17.30;99.90
18823;DHT22;9540;51.550;7.980;2022-07-06T09:57:52;17.50;99.90
18823;DHT22;9540;51.550;7.980;2022-07-06T10:00:20;17.70;99.90
18823;DHT22;9540;51.550;7.980;2022-07-06T10:02:48;18.00;99.90
18823;DHT22;9540;51.550;7.980;2022-07-06T10:05:17;18.30;99.90
18823;DHT22;9540;51.550;7.980;2022-07-06T10:07:46;18.50;99.90
18823;DHT22;9540;51.550;7.980;2022-07-06T10:10:16;18.60;99.90
18823;DHT22;9540;51.550;7.980;2022-07-06T10:12:44;18.40;99.90
18823;DHT22;9540;51.550;7.980;2022-07-06T10:15:16;18.30;99.90
18823;DHT22;9540;51.550;7.980;2022-07-06T10:17:44;18.40;99.90
18823;DHT22;9540;51.550;7.980;2022-07-06T10:20:13;18.60;99.90
18823;DHT22;9540;51.550;7.980;2022-07-06T10:22:41;18.60;99.90
18823;DHT22;9540;51.550;7.980;2022-07-06T10:25:10;18.80;99.90
18823;DHT22;9540;51.550;7.980;2022-07-06T10:27:38;18.90;99.90
18823;DHT22;9540;51.550;7.980;2022-07-06T10:30:07;18.60;99.90
18823;DHT22;9540;51.550;7.980;2022-07-06T10:32:35;18.50;99.90
18823;DHT22;9540;51.550;7.980;2022-07-06T10:35:03;18.60;99.90
18823;DHT22;9540;51.550;7.980;2022-07-06T10:37:30;18.30;99.90
18823;DHT22;9540;51.550;7.980;2022-07-06T10:39:58;18.10;99.90
18823;DHT22;9540;51.550;7.980;2022-07-06T10:42:46;18.10;99.90
18823;DHT22;9540;51.550;7.980;2022-07-06T10:45:19;18.00;99.90
18823;DHT22;9540;51.550;7.980;2022-07-06T10:47:47;18.10;99.90
18823;DHT22;9540;51.550;7.980;2022-07-06T10:50:18;18.20;99.90
18823;DHT22;9540;51.550;7.980;2022-07-06T10:52:58;18.40;99.90
18823;DHT22;9540;51.550;7.980;2022-07-06T10:55:28;18.30;99.90
18823;DHT22;9540;51.550;7.980;2022-07-06T10:57:57;18.30;99.90
18823;DHT22;9540;51.550;7.980;2022-07-06T11:00:25;18.50;99.90
18823;DHT22;9540;51.550;7.980;2022-07-06T11:02:52;18.90;99.90
18823;DHT22;9540;51.550;7.980;2022-07-06T11:05:39;19.30;99.90
18823;DHT22;9540;51.550;7.980;2022-07-06T11:08:09;19.70;99.90
18823;DHT22;9540;51.550;7.980;2022-07-06T11:10:46;20.00;99.90
18823;DHT22;9540;51.550;7.980;2022-07-06T11:13:30;19.60;99.90
18823;DHT22;9540;51.550;7.980;2022-07-06T11:16:01;19.60;99.90
18823;DHT22;9540;51.550;7.980;2022-07-06T11:18:38;19.50;99.90
18823;DHT22;9540;51.550;7.980;2022-07-06T11:21:17;19.70;99.90
18823;DHT22;9540;51.550;7.980;2022-07-06T11:23:46;19.70;99.90
18823;DHT22;9540;51.550;7.980;2022-07-06T11:26:15;19.90;99.90
18823;DHT22;9540;51.550;7.980;2022-07-06T11:28:45;20.10;99.90
18823;DHT22;9540;51.550;7.980;2022-07-06T11:31:13;19.90;99.90
18823;DHT22;9540;51.550;7.980;2022-07-06T11:33:40;19.90;99.90
18823;DHT22;9540;51.550;7.980;2022-07-06T11:36:15;19.30;99.90
18823;DHT22;9540;51.550;7.980;2022-07-06T11:38:44;19.10;99.90
18823;DHT22;9540;51.550;7.980;2022-07-06T11:41:11;18.80;99.90
18823;DHT22;9540;51.550;7.980;2022-07-06T11:43:40;18.50;99.90
18823;DHT22;9540;51.550;7.980;2022-07-06T11:46:25;18.60;99.90
18823;DHT22;9540;51.550;7.980;2022-07-06T11:48:55;18.60;99.90
18823;DHT22;9540;51.550;7.980;2022-07-06T11:51:23;18.80;99.90
18823;DHT22;9540;51.550;7.980;2022-07-06T11:53:52;18.90;99.90
18823;DHT22;9540;51.550;7.980;2022-07-06T11:56:20;19.10;99.90
18823;DHT22;9540;51.550;7.980;2022-07-06T11:58:51;19.40;99.90
18823;DHT22;9540;51.550;7.980;2022-07-06T12:01:20;19.60;99.90
18823;DHT22;9540;51.550;7.980;2022-07-06T12:03:49;19.70;99.90
18823;DHT22;9540;51.550;7.980;2022-07-06T12:06:19;19.80;99.90
18823;DHT22;9540;51.550;7.980;2022-07-06T12:08:47;20.10;97.70
18823;DHT22;9540;51.550;7.980;2022-07-06T12:11:23;20.20;96.30
18823;DHT22;9540;51.550;7.980;2022-07-06T12:13:50;20.40;94.40
18823;DHT22;9540;51.550;7.980;2022-07-06T12:16:18;20.70;94.10
18823;DHT22;9540;51.550;7.980;2022-07-06T12:18:48;20.90;92.50
18823;DHT22;9540;51.550;7.980;2022-07-06T12:21:18;20.70;91.50
18823;DHT22;9540;51.550;7.980;2022-07-06T12:23:48;20.60;92.20
18823;DHT22;9540;51.550;7.980;2022-07-06T12:26:17;20.70;93.10
18823;DHT22;9540;51.550;7.980;2022-07-06T12:28:46;20.60;92.20
18823;DHT22;9540;51.550;7.980;2022-07-06T12:31:31;20.40;91.60
18823;DHT22;9540;51.550;7.980;2022-07-06T12:34:00;20.10;92.60
18823;DHT22;9540;51.550;7.980;2022-07-06T12:36:27;20.00;93.50
18823;DHT22;9540;51.550;7.980;2022-07-06T12:38:54;19.70;93.80
18823;DHT22;9540;51.550;7.980;2022-07-06T12:41:29;19.50;94.60
18823;DHT22;9540;51.550;7.980;2022-07-06T12:44:02;19.40;96.30
18823;DHT22;9540;51.550;7.980;2022-07-06T12:46:32;19.80;96.30
18823;DHT22;9540;51.550;7.980;2022-07-06T12:49:02;20.20;94.60
18823;DHT22;9540;51.550;7.980;2022-07-06T12:51:40;20.40;93.90
18823;DHT22;9540;51.550;7.980;2022-07-06T12:54:15;20.70;92.10
18823;DHT22;9540;51.550;7.980;2022-07-06T12:57:07;21.00;92.40
18823;DHT22;9540;51.550;7.980;2022-07-06T12:59:37;21.20;91.40
18823;DHT22;9540;51.550;7.980;2022-07-06T13:02:06;21.40;91.10
18823;DHT22;9540;51.550;7.980;2022-07-06T13:04:36;21.30;88.50
18823;DHT22;9540;51.550;7.980;2022-07-06T13:07:04;21.40;90.50
18823;DHT22;9540;51.550;7.980;2022-07-06T13:09:32;21.40;90.90
18823;DHT22;9540;51.550;7.980;2022-07-06T13:11:59;21.30;90.90
18823;DHT22;9540;51.550;7.980;2022-07-06T13:14:26;21.10;91.10
18823;DHT22;9540;51.550;7.980;2022-07-06T13:16:53;21.10;91.60
18823;DHT22;9540;51.550;7.980;2022-07-06T13:19:20;21.10;90.50
18823;DHT22;9540;51.550;7.980;2022-07-06T13:21:49;21.00;91.10
18823;DHT22;9540;51.550;7.980;2022-07-06T13:24:16;21.00;90.80
18823;DHT22;9540;51.550;7.980;2022-07-06T13:26:43;20.80;90.80
18823;DHT22;9540;51.550;7.980;2022-07-06T13:29:12;20.60;91.30
18823;DHT22;9540;51.550;7.980;2022-07-06T13:31:41;20.30;91.70
18823;DHT22;9540;51.550;7.980;2022-07-06T13:34:09;20.10;90.80
18823;DHT22;9540;51.550;7.980;2022-07-06T13:36:36;20.20;91.90
18823;DHT22;9540;51.550;7.980;2022-07-06T13:39:05;20.40;89.70
18823;DHT22;9540;51.550;7.980;2022-07-06T13:41:33;20.60;89.80
18823;DHT22;9540;51.550;7.980;2022-07-06T13:44:00;20.90;87.70
18823;DHT22;9540;51.550;7.980;2022-07-06T13:46:28;21.20;88.20
18823;DHT22;9540;51.550;7.980;2022-07-06T13:48:55;21.30;86.90
18823;DHT22;9540;51.550;7.980;2022-07-06T13:51:23;21.50;87.70
18823;DHT22;9540;51.550;7.980;2022-07-06T13:53:52;21.30;88.40
18823;DHT22;9540;51.550;7.980;2022-07-06T13:56:21;21.00;86.70
18823;DHT22;9540;51.550;7.980;2022-07-06T13:58:48;20.90;88.40
18823;DHT22;9540;51.550;7.980;2022-07-06T14:01:15;20.50;88.10
18823;DHT22;9540;51.550;7.980;2022-07-06T14:03:42;20.30;89.10
18823;DHT22;9540;51.550;7.980;2022-07-06T14:06:10;20.40;90.20
18823;DHT22;9540;51.550;7.980;2022-07-06T14:08:38;20.80;90.20
18823;DHT22;9540;51.550;7.980;2022-07-06T14:11:07;21.20;86.00
18823;DHT22;9540;51.550;7.980;2022-07-06T14:13:37;21.30;83.70
18823;DHT22;9540;51.550;7.980;2022-07-06T14:16:05;21.40;82.70
18823;DHT22;9540;51.550;7.980;2022-07-06T14:18:33;21.30;84.60
18823;DHT22;9540;51.550;7.980;2022-07-06T14:21:00;21.20;85.30
18823;DHT22;9540;51.550;7.980;2022-07-06T14:23:27;21.20;83.30
18823;DHT22;9540;51.550;7.980;2022-07-06T14:25:55;21.30;83.70
18823;DHT22;9540;51.550;7.980;2022-07-06T14:28:23;21.30;84.10
18823;DHT22;9540;51.550;7.980;2022-07-06T14:30:52;21.20;84.00
18823;DHT22;9540;51.550;7.980;2022-07-06T14:33:19;21.30;84.10
18823;DHT22;9540;51.550;7.980;2022-07-06T14:35:47;21.30;85.80
18823;DHT22;9540;51.550;7.980;2022-07-06T14:38:15;21.20;85.20
18823;DHT22;9540;51.550;7.980;2022-07-06T14:40:42;21.40;85.40
18823;DHT22;9540;51.550;7.980;2022-07-06T14:43:10;21.60;86.60
18823;DHT22;9540;51.550;7.980;2022-07-06T14:45:37;21.80;83.70
18823;DHT22;9540;51.550;7.980;2022-07-06T14:48:07;21.80;84.40
18823;DHT22;9540;51.550;7.980;2022-07-06T14:50:34;22.20;83.30
18823;DHT22;9540;51.550;7.980;2022-07-06T14:53:02;22.20;81.10
18823;DHT22;9540;51.550;7.980;2022-07-06T14:55:30;22.20;81.70
18823;DHT22;9540;51.550;7.980;2022-07-06T14:57:57;22.40;81.20
18823;DHT22;9540;51.550;7.980;2022-07-06T15:00:24;22.40;81.90
18823;DHT22;9540;51.550;7.980;2022-07-06T15:02:51;22.30;79.90
18823;DHT22;9540;51.550;7.980;2022-07-06T15:05:20;22.20;81.50
18823;DHT22;9540;51.550;7.980;2022-07-06T15:07:47;21.90;82.80
18823;DHT22;9540;51.550;7.980;2022-07-06T15:10:14;21.70;82.00
18823;DHT22;9540;51.550;7.980;2022-07-06T15:12:41;21.60;83.00
18823;DHT22;9540;51.550;7.980;2022-07-06T15:15:09;21.70;83.10
18823;DHT22;9540;51.550;7.980;2022-07-06T15:17:36;21.60;82.60
18823;DHT22;9540;51.550;7.980;2022-07-06T15:20:05;21.20;83.10
18823;DHT22;9540;51.550;7.980;2022-07-06T15:22:34;21.00;83.30
18823;DHT22;9540;51.550;7.980;2022-07-06T15:25:01;21.00;83.70
18823;DHT22;9540;51.550;7.980;2022-07-06T15:27:29;20.80;84.60
18823;DHT22;9540;51.550;7.980;2022-07-06T15:29:56;20.50;85.30
18823;DHT22;9540;51.550;7.980;2022-07-06T15:32:24;20.50;86.90
18823;DHT22;9540;51.550;7.980;2022-07-06T15:34:51;20.50;85.80
18823;DHT22;9540;51.550;7.980;2022-07-06T15:37:18;20.40;87.30
18823;DHT22;9540;51.550;7.980;2022-07-06T15:39:46;20.20;86.60
18823;DHT22;9540;51.550;7.980;2022-07-06T15:42:13;20.00;87.30
18823;DHT22;9540;51.550;7.980;2022-07-06T15:44:40;20.00;86.60
18823;DHT22;9540;51.550;7.980;2022-07-06T15:47:07;20.10;87.10
18823;DHT22;9540;51.550;7.980;2022-07-06T15:49:34;20.30;87.50
18823;DHT22;9540;51.550;7.980;2022-07-06T15:52:02;20.40;87.20